sensor_id;sensor_type;location;lat;lon;timestamp;P1;durP1;ratioP1;P2;durP2;ratioP2
65368;SDS011;51970;53.484;49.488;2023-02-15T00:00:25;13.43;;;3.95;;
65368;SDS011;51970;53.484;49.488;2023-02-15T00:02:51;9.27;;;4.30;;
65368;SDS011;51970;53.484;49.488;2023-02-15T00:07:43;5.97;;;3.35;;
65368;SDS011;51970;53.484;49.488;2023-02-15T00:10:10;9.40;;;3.15;;
65368;SDS011;51970;53.484;49.488;2023-02-15T00:12:37;5.95;;;3.08;;
65368;SDS011;51970;53.484;49.488;2023-02-15T00:15:03;6.30;;;3.28;;
65368;SDS011;51970;53.484;49.488;2023-02-15T00:17:29;7.22;;;2.38;;
65368;SDS011;51970;53.484;49.488;2023-02-15T00:22:21;8.18;;;3.15;;
65368;SDS011;51970;53.484;49.488;2023-02-15T00:27:13;9.00;;;2.85;;
65368;SDS011;51970;53.484;49.488;2023-02-15T00:29:39;19.05;;;6.57;;
65368;SDS011;51970;53.484;49.488;2023-02-15T00:32:06;23.30;;;8.68;;
65368;SDS011;51970;53.484;49.488;2023-02-15T00:34:32;9.32;;;3.38;;
65368;SDS011;51970;53.484;49.488;2023-02-15T00:36:58;13.55;;;4.90;;
65368;SDS011;51970;53.484;49.488;2023-02-15T00:39:24;8.80;;;3.30;;
65368;SDS011;51970;53.484;49.488;2023-02-15T00:41:52;10.80;;;5.90;;
65368;SDS011;51970;53.484;49.488;2023-02-15T00:46:44;7.65;;;3.85;;
65368;SDS011;51970;53.484;49.488;2023-02-15T00:51:36;5.50;;;3.22;;
65368;SDS011;51970;53.484;49.488;2023-02-15T00:54:02;10.50;;;4.88;;
65368;SDS011;51970;53.484;49.488;2023-02-15T00:56:29;28.88;;;10.57;;
65368;SDS011;51970;53.484;49.488;2023-02-15T00:58:55;11.35;;;4.50;;
65368;SDS011;51970;53.484;49.488;2023-02-15T01:01:21;16.95;;;6.00;;
65368;SDS011;51970;53.484;49.488;2023-02-15T01:03:47;10.10;;;4.20;;
65368;SDS011;51970;53.484;49.488;2023-02-15T01:08:40;7.93;;;3.17;;
65368;SDS011;51970;53.484;49.488;2023-02-15T01:11:08;10.55;;;5.63;;
65368;SDS011;51970;53.484;49.488;2023-02-15T01:13:40;13.85;;;4.53;;
65368;SDS011;51970;53.484;49.488;2023-02-15T01:16:06;5.65;;;3.15;;
65368;SDS011;51970;53.484;49.488;2023-02-15T01:18:33;14.05;;;3.53;;
65368;SDS011;51970;53.484;49.488;2023-02-15T01:20:59;11.40;;;4.43;;
65368;SDS011;51970;53.484;49.488;2023-02-15T01:23:33;13.98;;;5.57;;
65368;SDS011;51970;53.484;49.488;2023-02-15T01:26:03;9.20;;;3.92;;
65368;SDS011;51970;53.484;49.488;2023-02-15T01:28:29;11.25;;;5.20;;
65368;SDS011;51970;53.484;49.488;2023-02-15T01:30:56;9.45;;;5.43;;
65368;SDS011;51970;53.484;49.488;2023-02-15T01:33:22;17.75;;;5.07;;
65368;SDS011;51970;53.484;49.488;2023-02-15T01:35:48;10.27;;;5.13;;
65368;SDS011;51970;53.484;49.488;2023-02-15T01:38:14;9.70;;;4.25;;
65368;SDS011;51970;53.484;49.488;2023-02-15T01:43:10;8.18;;;4.13;;
65368;SDS011;51970;53.484;49.488;2023-02-15T01:45:37;6.43;;;3.40;;
65368;SDS011;51970;53.484;49.488;2023-02-15T01:50:38;8.98;;;3.88;;
65368;SDS011;51970;53.484;49.488;2023-02-15T01:53:09;8.90;;;3.53;;
65368;SDS011;51970;53.484;49.488;2023-02-15T01:55:57;7.32;;;3.45;;
65368;SDS011;51970;53.484;49.488;2023-02-15T01:58:24;8.90;;;3.42;;
65368;SDS011;51970;53.484;49.488;2023-02-15T02:00:53;9.32;;;4.47;;
65368;SDS011;51970;53.484;49.488;2023-02-15T02:03:24;7.47;;;3.95;;
65368;SDS011;51970;53.484;49.488;2023-02-15T02:06:13;7.55;;;4.05;;
65368;SDS011;51970;53.484;49.488;2023-02-15T02:08:41;5.57;;;2.75;;
65368;SDS011;51970;53.484;49.488;2023-02-15T02:11:11;8.55;;;4.93;;
65368;SDS011;51970;53.484;49.488;2023-02-15T02:13:42;6.15;;;2.88;;
65368;SDS011;51970;53.484;49.488;2023-02-15T02:35:44;15.05;;;4.57;;
65368;SDS011;51970;53.484;49.488;2023-02-15T02:41:00;5.95;;;2.75;;
65368;SDS011;51970;53.484;49.488;2023-02-15T02:43:47;9.55;;;4.63;;
65368;SDS011;51970;53.484;49.488;2023-02-15T02:46:28;14.85;;;5.72;;
65368;SDS011;51970;53.484;49.488;2023-02-15T02:49:00;21.17;;;10.43;;
65368;SDS011;51970;53.484;49.488;2023-02-15T02:51:26;6.78;;;3.80;;
65368;SDS011;51970;53.484;49.488;2023-02-15T02:53:53;11.60;;;4.30;;
65368;SDS011;51970;53.484;49.488;2023-02-15T02:59:24;11.57;;;4.40;;
65368;SDS011;51970;53.484;49.488;2023-02-15T03:01:56;16.58;;;6.07;;
65368;SDS011;51970;53.484;49.488;2023-02-15T03:04:26;8.27;;;3.33;;
65368;SDS011;51970;53.484;49.488;2023-02-15T03:07:00;7.65;;;3.40;;
65368;SDS011;51970;53.484;49.488;2023-02-15T03:09:34;7.50;;;4.13;;
65368;SDS011;51970;53.484;49.488;2023-02-15T03:12:16;10.20;;;4.03;;
65368;SDS011;51970;53.484;49.488;2023-02-15T03:14:48;7.50;;;3.88;;
65368;SDS011;51970;53.484;49.488;2023-02-15T03:17:18;9.07;;;4.07;;
65368;SDS011;51970;53.484;49.488;2023-02-15T03:19:47;9.23;;;4.07;;
65368;SDS011;51970;53.484;49.488;2023-02-15T03:22:21;15.02;;;5.22;;
65368;SDS011;51970;53.484;49.488;2023-02-15T03:24:56;10.57;;;4.20;;
65368;SDS011;51970;53.484;49.488;2023-02-15T03:27:31;17.15;;;7.63;;
65368;SDS011;51970;53.484;49.488;2023-02-15T03:30:02;9.60;;;4.13;;
65368;SDS011;51970;53.484;49.488;2023-02-15T03:32:31;15.45;;;5.53;;
65368;SDS011;51970;53.484;49.488;2023-02-15T03:35:00;15.50;;;8.93;;
65368;SDS011;51970;53.484;49.488;2023-02-15T03:37:35;18.20;;;9.52;;
65368;SDS011;51970;53.484;49.488;2023-02-15T03:40:21;10.27;;;4.50;;
65368;SDS011;51970;53.484;49.488;2023-02-15T03:43:15;13.75;;;5.20;;
65368;SDS011;51970;53.484;49.488;2023-02-15T03:46:05;9.63;;;3.72;;
65368;SDS011;51970;53.484;49.488;2023-02-15T03:48:38;22.73;;;6.03;;
65368;SDS011;51970;53.484;49.488;2023-02-15T03:51:08;9.60;;;4.30;;
65368;SDS011;51970;53.484;49.488;2023-02-15T03:53:56;12.70;;;4.63;;
65368;SDS011;51970;53.484;49.488;2023-02-15T03:56:24;9.88;;;5.25;;
65368;SDS011;51970;53.484;49.488;2023-02-15T03:58:50;12.45;;;5.35;;
65368;SDS011;51970;53.484;49.488;2023-02-15T04:01:37;10.32;;;4.90;;
65368;SDS011;51970;53.484;49.488;2023-02-15T04:04:11;10.70;;;4.70;;
65368;SDS011;51970;53.484;49.488;2023-02-15T04:07:09;11.35;;;5.15;;
65368;SDS011;51970;53.484;49.488;2023-02-15T04:09:36;12.50;;;4.82;;
65368;SDS011;51970;53.484;49.488;2023-02-15T04:12:21;12.27;;;4.53;;
65368;SDS011;51970;53.484;49.488;2023-02-15T04:14:48;12.48;;;4.65;;
65368;SDS011;51970;53.484;49.488;2023-02-15T04:17:33;19.63;;;5.10;;
65368;SDS011;51970;53.484;49.488;2023-02-15T04:20:01;8.65;;;4.10;;
65368;SDS011;51970;53.484;49.488;2023-02-15T04:22:46;6.35;;;2.05;;
65368;SDS011;51970;53.484;49.488;2023-02-15T04:25:31;9.50;;;4.55;;
65368;SDS011;51970;53.484;49.488;2023-02-15T04:30:23;5.28;;;3.63;;
65368;SDS011;51970;53.484;49.488;2023-02-15T04:32:50;12.63;;;3.90;;
65368;SDS011;51970;53.484;49.488;2023-02-15T04:35:17;7.88;;;3.60;;
65368;SDS011;51970;53.484;49.488;2023-02-15T04:37:43;13.95;;;5.93;;
65368;SDS011;51970;53.484;49.488;2023-02-15T04:40:28;6.30;;;3.17;;
65368;SDS011;51970;53.484;49.488;2023-02-15T04:43:00;7.35;;;3.25;;
65368;SDS011;51970;53.484;49.488;2023-02-15T04:45:29;9.68;;;4.13;;
65368;SDS011;51970;53.484;49.488;2023-02-15T04:47:56;4.88;;;2.80;;
65368;SDS011;51970;53.484;49.488;2023-02-15T04:50:32;8.32;;;3.78;;
65368;SDS011;51970;53.484;49.488;2023-02-15T04:53:23;10.73;;;6.93;;
65368;SDS011;51970;53.484;49.488;2023-02-15T04:55:50;8.77;;;3.72;;
65368;SDS011;51970;53.484;49.488;2023-02-15T04:58:29;9.90;;;4.00;;
65368;SDS011;51970;53.484;49.488;2023-02-15T05:01:37;8.60;;;4.22;;
65368;SDS011;51970;53.484;49.488;2023-02-15T05:04:46;7.97;;;3.75;;
65368;SDS011;51970;53.484;49.488;2023-02-15T05:07:58;5.07;;;2.38;;
65368;SDS011;51970;53.484;49.488;2023-02-15T05:10:29;7.13;;;3.42;;
65368;SDS011;51970;53.484;49.488;2023-02-15T05:13:36;14.50;;;4.90;;
65368;SDS011;51970;53.484;49.488;2023-02-15T05:16:12;6.50;;;2.70;;
65368;SDS011;51970;53.484;49.488;2023-02-15T05:19:00;8.85;;;3.75;;
65368;SDS011;51970;53.484;49.488;2023-02-15T05:21:27;12.32;;;4.72;;
65368;SDS011;51970;53.484;49.488;2023-02-15T05:24:02;8.63;;;4.63;;
65368;SDS011;51970;53.484;49.488;2023-02-15T05:27:24;5.68;;;3.13;;
65368;SDS011;51970;53.484;49.488;2023-02-15T05:31:11;4.70;;;2.60;;
65368;SDS011;51970;53.484;49.488;2023-02-15T05:34:38;3.65;;;1.80;;
65368;SDS011;51970;53.484;49.488;2023-02-15T05:37:53;5.32;;;2.63;;
65368;SDS011;51970;53.484;49.488;2023-02-15T05:40:30;7.93;;;3.33;;
65368;SDS011;51970;53.484;49.488;2023-02-15T05:43:00;8.63;;;4.25;;
65368;SDS011;51970;53.484;49.488;2023-02-15T05:46:02;6.57;;;3.60;;
65368;SDS011;51970;53.484;49.488;2023-02-15T05:48:38;12.23;;;7.53;;
65368;SDS011;51970;53.484;49.488;2023-02-15T05:51:09;7.80;;;3.58;;
65368;SDS011;51970;53.484;49.488;2023-02-15T05:53:43;6.95;;;3.20;;
65368;SDS011;51970;53.484;49.488;2023-02-15T05:57:17;6.40;;;3.08;;
65368;SDS011;51970;53.484;49.488;2023-02-15T06:02:39;3.55;;;1.80;;
65368;SDS011;51970;53.484;49.488;2023-02-15T06:05:09;8.45;;;3.25;;
65368;SDS011;51970;53.484;49.488;2023-02-15T06:08:07;11.07;;;4.15;;
65368;SDS011;51970;53.484;49.488;2023-02-15T06:13:35;21.30;;;5.93;;
65368;SDS011;51970;53.484;49.488;2023-02-15T06:16:19;13.73;;;3.47;;
65368;SDS011;51970;53.484;49.488;2023-02-15T06:18:59;4.47;;;2.13;;
65368;SDS011;51970;53.484;49.488;2023-02-15T06:21:28;6.35;;;2.88;;
65368;SDS011;51970;53.484;49.488;2023-02-15T06:24:37;4.65;;;2.33;;
65368;SDS011;51970;53.484;49.488;2023-02-15T06:27:29;5.88;;;3.30;;
65368;SDS011;51970;53.484;49.488;2023-02-15T06:30:03;6.38;;;2.38;;
65368;SDS011;51970;53.484;49.488;2023-02-15T06:32:34;6.45;;;3.97;;
65368;SDS011;51970;53.484;49.488;2023-02-15T06:35:30;11.50;;;3.25;;
65368;SDS011;51970;53.484;49.488;2023-02-15T06:38:22;10.35;;;4.57;;
65368;SDS011;51970;53.484;49.488;2023-02-15T06:41:05;6.82;;;2.88;;
65368;SDS011;51970;53.484;49.488;2023-02-15T06:44:19;8.32;;;3.58;;
65368;SDS011;51970;53.484;49.488;2023-02-15T06:46:55;9.30;;;4.78;;
65368;SDS011;51970;53.484;49.488;2023-02-15T06:49:33;8.60;;;3.22;;
65368;SDS011;51970;53.484;49.488;2023-02-15T06:52:20;11.32;;;5.00;;
65368;SDS011;51970;53.484;49.488;2023-02-15T06:56:06;8.13;;;4.57;;
65368;SDS011;51970;53.484;49.488;2023-02-15T06:58:50;8.82;;;3.25;;
65368;SDS011;51970;53.484;49.488;2023-02-15T07:01:18;10.25;;;4.07;;
65368;SDS011;51970;53.484;49.488;2023-02-15T07:03:58;8.00;;;3.97;;
65368;SDS011;51970;53.484;49.488;2023-02-15T07:07:51;9.45;;;3.65;;
65368;SDS011;51970;53.484;49.488;2023-02-15T07:14:11;10.13;;;4.68;;
65368;SDS011;51970;53.484;49.488;2023-02-15T07:17:22;8.13;;;4.15;;
65368;SDS011;51970;53.484;49.488;2023-02-15T07:20:14;9.10;;;3.47;;
65368;SDS011;51970;53.484;49.488;2023-02-15T07:23:20;5.05;;;3.40;;
65368;SDS011;51970;53.484;49.488;2023-02-15T07:26:08;11.57;;;4.10;;
65368;SDS011;51970;53.484;49.488;2023-02-15T07:28:34;5.60;;;3.25;;
65368;SDS011;51970;53.484;49.488;2023-02-15T07:31:02;9.32;;;3.78;;
65368;SDS011;51970;53.484;49.488;2023-02-15T07:33:31;10.13;;;3.95;;
65368;SDS011;51970;53.484;49.488;2023-02-15T07:35:59;6.32;;;2.35;;
65368;SDS011;51970;53.484;49.488;2023-02-15T07:38:29;15.98;;;2.95;;
65368;SDS011;51970;53.484;49.488;2023-02-15T07:41:01;10.40;;;4.63;;
65368;SDS011;51970;53.484;49.488;2023-02-15T07:43:28;9.38;;;3.67;;
65368;SDS011;51970;53.484;49.488;2023-02-15T07:46:16;6.18;;;2.63;;
65368;SDS011;51970;53.484;49.488;2023-02-15T07:48:42;4.60;;;2.08;;
65368;SDS011;51970;53.484;49.488;2023-02-15T07:51:11;6.35;;;2.80;;
65368;SDS011;51970;53.484;49.488;2023-02-15T07:53:38;14.43;;;4.68;;
65368;SDS011;51970;53.484;49.488;2023-02-15T07:56:10;13.63;;;4.07;;
65368;SDS011;51970;53.484;49.488;2023-02-15T07:58:47;14.57;;;6.78;;
65368;SDS011;51970;53.484;49.488;2023-02-15T08:01:17;7.57;;;3.13;;
65368;SDS011;51970;53.484;49.488;2023-02-15T08:03:47;9.68;;;4.70;;
65368;SDS011;51970;53.484;49.488;2023-02-15T08:06:14;6.32;;;2.95;;
65368;SDS011;51970;53.484;49.488;2023-02-15T08:08:44;8.02;;;3.47;;
65368;SDS011;51970;53.484;49.488;2023-02-15T08:11:20;9.10;;;3.45;;
65368;SDS011;51970;53.484;49.488;2023-02-15T08:13:58;7.45;;;2.50;;
65368;SDS011;51970;53.484;49.488;2023-02-15T08:19:07;12.15;;;6.65;;
65368;SDS011;51970;53.484;49.488;2023-02-15T08:21:35;10.63;;;4.93;;
65368;SDS011;51970;53.484;49.488;2023-02-15T08:24:03;18.90;;;9.55;;
65368;SDS011;51970;53.484;49.488;2023-02-15T08:26:31;22.27;;;6.78;;
65368;SDS011;51970;53.484;49.488;2023-02-15T08:28:58;17.20;;;8.07;;
65368;SDS011;51970;53.484;49.488;2023-02-15T08:31:25;28.30;;;10.45;;
65368;SDS011;51970;53.484;49.488;2023-02-15T08:33:53;20.33;;;9.10;;
65368;SDS011;51970;53.484;49.488;2023-02-15T08:36:21;16.92;;;8.73;;
65368;SDS011;51970;53.484;49.488;2023-02-15T08:38:49;26.75;;;14.27;;
65368;SDS011;51970;53.484;49.488;2023-02-15T08:41:20;20.35;;;11.00;;
65368;SDS011;51970;53.484;49.488;2023-02-15T08:43:56;8.10;;;4.03;;
65368;SDS011;51970;53.484;49.488;2023-02-15T08:46:25;24.75;;;10.00;;
65368;SDS011;51970;53.484;49.488;2023-02-15T08:48:55;20.02;;;9.40;;
65368;SDS011;51970;53.484;49.488;2023-02-15T08:51:24;25.17;;;11.30;;
65368;SDS011;51970;53.484;49.488;2023-02-15T08:53:54;19.02;;;7.78;;
65368;SDS011;51970;53.484;49.488;2023-02-15T08:56:22;17.30;;;8.13;;
65368;SDS011;51970;53.484;49.488;2023-02-15T08:58:50;22.67;;;11.05;;
65368;SDS011;51970;53.484;49.488;2023-02-15T09:01:17;23.83;;;12.15;;
65368;SDS011;51970;53.484;49.488;2023-02-15T09:03:49;17.50;;;9.18;;
65368;SDS011;51970;53.484;49.488;2023-02-15T09:06:22;25.80;;;10.90;;
65368;SDS011;51970;53.484;49.488;2023-02-15T09:09:00;22.13;;;10.13;;
65368;SDS011;51970;53.484;49.488;2023-02-15T09:11:27;21.63;;;10.13;;
65368;SDS011;51970;53.484;49.488;2023-02-15T09:13:55;16.95;;;7.85;;
65368;SDS011;51970;53.484;49.488;2023-02-15T09:16:27;33.05;;;12.13;;
65368;SDS011;51970;53.484;49.488;2023-02-15T09:18:55;22.98;;;11.30;;
65368;SDS011;51970;53.484;49.488;2023-02-15T09:21:26;28.13;;;12.52;;
65368;SDS011;51970;53.484;49.488;2023-02-15T09:23:57;22.23;;;11.20;;
65368;SDS011;51970;53.484;49.488;2023-02-15T09:26:28;14.70;;;6.45;;
65368;SDS011;51970;53.484;49.488;2023-02-15T09:28:56;32.67;;;18.38;;
65368;SDS011;51970;53.484;49.488;2023-02-15T09:31:25;21.80;;;10.20;;
65368;SDS011;51970;53.484;49.488;2023-02-15T09:33:53;18.58;;;11.48;;
65368;SDS011;51970;53.484;49.488;2023-02-15T09:36:22;14.30;;;7.30;;
65368;SDS011;51970;53.484;49.488;2023-02-15T09:39:14;25.48;;;10.23;;
65368;SDS011;51970;53.484;49.488;2023-02-15T10:30:46;14.52;;;6.32;;
65368;SDS011;51970;53.484;49.488;2023-02-15T10:33:54;14.23;;;6.47;;
65368;SDS011;51970;53.484;49.488;2023-02-15T10:37:49;15.65;;;6.93;;
65368;SDS011;51970;53.484;49.488;2023-02-15T10:44:05;15.07;;;4.80;;
65368;SDS011;51970;53.484;49.488;2023-02-15T10:50:45;13.85;;;6.32;;
65368;SDS011;51970;53.484;49.488;2023-02-15T10:56:37;21.00;;;8.00;;
65368;SDS011;51970;53.484;49.488;2023-02-15T11:06:04;20.48;;;6.05;;
65368;SDS011;51970;53.484;49.488;2023-02-15T11:09:17;12.20;;;6.30;;
65368;SDS011;51970;53.484;49.488;2023-02-15T11:11:59;16.98;;;7.40;;
65368;SDS011;51970;53.484;49.488;2023-02-15T11:15:26;8.25;;;4.20;;
65368;SDS011;51970;53.484;49.488;2023-02-15T11:22:09;23.77;;;7.47;;
65368;SDS011;51970;53.484;49.488;2023-02-15T11:24:42;17.77;;;7.50;;
65368;SDS011;51970;53.484;49.488;2023-02-15T11:27:55;22.02;;;7.25;;
65368;SDS011;51970;53.484;49.488;2023-02-15T11:32:11;16.52;;;6.43;;
65368;SDS011;51970;53.484;49.488;2023-02-15T11:35:52;10.55;;;5.53;;
65368;SDS011;51970;53.484;49.488;2023-02-15T11:39:24;9.00;;;4.03;;
65368;SDS011;51970;53.484;49.488;2023-02-15T11:41:55;13.05;;;5.53;;
65368;SDS011;51970;53.484;49.488;2023-02-15T11:47:03;10.70;;;5.45;;
65368;SDS011;51970;53.484;49.488;2023-02-15T11:49:37;14.98;;;5.80;;
65368;SDS011;51970;53.484;49.488;2023-02-15T11:52:10;9.40;;;4.18;;
65368;SDS011;51970;53.484;49.488;2023-02-15T11:54:42;11.48;;;4.95;;
65368;SDS011;51970;53.484;49.488;2023-02-15T11:57:34;10.85;;;6.20;;
65368;SDS011;51970;53.484;49.488;2023-02-15T12:03:15;6.28;;;2.80;;
65368;SDS011;51970;53.484;49.488;2023-02-15T12:05:48;20.13;;;6.25;;
65368;SDS011;51970;53.484;49.488;2023-02-15T12:08:19;9.07;;;4.43;;
65368;SDS011;51970;53.484;49.488;2023-02-15T12:10:58;10.32;;;3.40;;
65368;SDS011;51970;53.484;49.488;2023-02-15T12:13:29;10.88;;;4.88;;
65368;SDS011;51970;53.484;49.488;2023-02-15T12:15:57;8.43;;;3.63;;
65368;SDS011;51970;53.484;49.488;2023-02-15T12:18:35;13.40;;;4.50;;
65368;SDS011;51970;53.484;49.488;2023-02-15T12:21:32;10.85;;;4.13;;
65368;SDS011;51970;53.484;49.488;2023-02-15T12:26:45;12.45;;;3.72;;
65368;SDS011;51970;53.484;49.488;2023-02-15T12:29:30;14.05;;;4.57;;
65368;SDS011;51970;53.484;49.488;2023-02-15T12:32:17;17.20;;;5.72;;
65368;SDS011;51970;53.484;49.488;2023-02-15T12:34:51;6.30;;;2.50;;
65368;SDS011;51970;53.484;49.488;2023-02-15T12:37:29;9.15;;;3.67;;
65368;SDS011;51970;53.484;49.488;2023-02-15T12:40:00;11.95;;;4.38;;
65368;SDS011;51970;53.484;49.488;2023-02-15T12:42:48;18.02;;;5.05;;
65368;SDS011;51970;53.484;49.488;2023-02-15T12:45:27;10.07;;;4.90;;
65368;SDS011;51970;53.484;49.488;2023-02-15T12:50:48;10.77;;;5.60;;
65368;SDS011;51970;53.484;49.488;2023-02-15T12:53:20;10.98;;;5.20;;
65368;SDS011;51970;53.484;49.488;2023-02-15T12:55:53;10.68;;;5.05;;
65368;SDS011;51970;53.484;49.488;2023-02-15T12:58:25;15.82;;;5.57;;
65368;SDS011;51970;53.484;49.488;2023-02-15T13:01:25;11.20;;;4.82;;
65368;SDS011;51970;53.484;49.488;2023-02-15T13:06:19;10.70;;;4.50;;
65368;SDS011;51970;53.484;49.488;2023-02-15T13:08:47;8.20;;;3.78;;
65368;SDS011;51970;53.484;49.488;2023-02-15T13:11:24;11.80;;;4.40;;
65368;SDS011;51970;53.484;49.488;2023-02-15T13:13:56;11.73;;;4.97;;
65368;SDS011;51970;53.484;49.488;2023-02-15T13:16:36;8.93;;;5.05;;
65368;SDS011;51970;53.484;49.488;2023-02-15T13:19:06;13.85;;;7.28;;
65368;SDS011;51970;53.484;49.488;2023-02-15T13:21:38;13.55;;;5.47;;
65368;SDS011;51970;53.484;49.488;2023-02-15T13:26:45;12.02;;;5.22;;
65368;SDS011;51970;53.484;49.488;2023-02-15T13:31:51;16.98;;;10.13;;
65368;SDS011;51970;53.484;49.488;2023-02-15T13:34:23;15.15;;;6.57;;
65368;SDS011;51970;53.484;49.488;2023-02-15T13:37:05;10.18;;;4.53;;
65368;SDS011;51970;53.484;49.488;2023-02-15T13:42:24;10.93;;;5.00;;
65368;SDS011;51970;53.484;49.488;2023-02-15T13:47:31;16.55;;;6.35;;
65368;SDS011;51970;53.484;49.488;2023-02-15T14:06:45;8.30;;;4.72;;
65368;SDS011;51970;53.484;49.488;2023-02-15T14:09:29;10.00;;;4.15;;
65368;SDS011;51970;53.484;49.488;2023-02-15T14:12:14;12.75;;;5.85;;
65368;SDS011;51970;53.484;49.488;2023-02-15T14:20:47;18.38;;;8.32;;
65368;SDS011;51970;53.484;49.488;2023-02-15T14:23:52;14.48;;;3.88;;
65368;SDS011;51970;53.484;49.488;2023-02-15T14:26:32;6.75;;;2.45;;
65368;SDS011;51970;53.484;49.488;2023-02-15T14:32:04;3.03;;;1.30;;
65368;SDS011;51970;53.484;49.488;2023-02-15T14:34:41;9.80;;;4.63;;
65368;SDS011;51970;53.484;49.488;2023-02-15T14:37:12;13.23;;;5.82;;
65368;SDS011;51970;53.484;49.488;2023-02-15T14:43:19;4.30;;;1.80;;
65368;SDS011;51970;53.484;49.488;2023-02-15T14:46:03;5.85;;;2.92;;
65368;SDS011;51970;53.484;49.488;2023-02-15T14:48:41;6.47;;;3.75;;
65368;SDS011;51970;53.484;49.488;2023-02-15T15:01:56;7.65;;;3.35;;
65368;SDS011;51970;53.484;49.488;2023-02-15T15:07:23;6.63;;;3.38;;
65368;SDS011;51970;53.484;49.488;2023-02-15T15:15:01;8.30;;;4.18;;
65368;SDS011;51970;53.484;49.488;2023-02-15T15:20:08;7.97;;;3.92;;
65368;SDS011;51970;53.484;49.488;2023-02-15T15:25:44;9.70;;;5.03;;
65368;SDS011;51970;53.484;49.488;2023-02-15T15:36:53;9.68;;;4.75;;
65368;SDS011;51970;53.484;49.488;2023-02-15T15:50:47;10.13;;;4.95;;
65368;SDS011;51970;53.484;49.488;2023-02-15T15:53:20;10.43;;;4.18;;
65368;SDS011;51970;53.484;49.488;2023-02-15T15:55:50;10.45;;;5.80;;
65368;SDS011;51970;53.484;49.488;2023-02-15T16:01:02;4.40;;;2.20;;
65368;SDS011;51970;53.484;49.488;2023-02-15T16:03:34;7.68;;;4.18;;
65368;SDS011;51970;53.484;49.488;2023-02-15T16:06:01;10.45;;;4.47;;
65368;SDS011;51970;53.484;49.488;2023-02-15T16:11:00;12.93;;;5.03;;
65368;SDS011;51970;53.484;49.488;2023-02-15T16:13:48;12.80;;;4.40;;
65368;SDS011;51970;53.484;49.488;2023-02-15T16:16:19;8.75;;;4.05;;
65368;SDS011;51970;53.484;49.488;2023-02-15T16:18:50;9.93;;;5.35;;
65368;SDS011;51970;53.484;49.488;2023-02-15T16:21:27;12.63;;;5.13;;
65368;SDS011;51970;53.484;49.488;2023-02-15T16:27:15;7.65;;;4.75;;
65368;SDS011;51970;53.484;49.488;2023-02-15T16:32:54;8.18;;;3.58;;
65368;SDS011;51970;53.484;49.488;2023-02-15T16:35:58;5.15;;;2.53;;
65368;SDS011;51970;53.484;49.488;2023-02-15T16:41:29;5.13;;;2.17;;
65368;SDS011;51970;53.484;49.488;2023-02-15T16:44:05;8.65;;;4.22;;
65368;SDS011;51970;53.484;49.488;2023-02-15T16:46:43;7.68;;;3.53;;
65368;SDS011;51970;53.484;49.488;2023-02-15T16:49:22;8.43;;;7.25;;
65368;SDS011;51970;53.484;49.488;2023-02-15T16:52:01;5.13;;;2.80;;
65368;SDS011;51970;53.484;49.488;2023-02-15T16:54:34;7.53;;;5.60;;
65368;SDS011;51970;53.484;49.488;2023-02-15T16:57:01;7.47;;;3.20;;
65368;SDS011;51970;53.484;49.488;2023-02-15T17:09:31;3.70;;;2.00;;
65368;SDS011;51970;53.484;49.488;2023-02-15T17:11:58;7.00;;;2.60;;
65368;SDS011;51970;53.484;49.488;2023-02-15T17:14:30;6.68;;;2.55;;
65368;SDS011;51970;53.484;49.488;2023-02-15T17:17:01;4.80;;;3.03;;
65368;SDS011;51970;53.484;49.488;2023-02-15T17:19:47;7.10;;;3.90;;
65368;SDS011;51970;53.484;49.488;2023-02-15T17:22:20;8.23;;;2.75;;
65368;SDS011;51970;53.484;49.488;2023-02-15T17:24:50;6.28;;;3.17;;
65368;SDS011;51970;53.484;49.488;2023-02-15T17:27:25;4.88;;;2.70;;
65368;SDS011;51970;53.484;49.488;2023-02-15T17:29:56;8.93;;;6.60;;
65368;SDS011;51970;53.484;49.488;2023-02-15T17:32:25;8.18;;;3.42;;
65368;SDS011;51970;53.484;49.488;2023-02-15T17:37:41;6.93;;;3.05;;
65368;SDS011;51970;53.484;49.488;2023-02-15T17:40:19;6.88;;;3.67;;
65368;SDS011;51970;53.484;49.488;2023-02-15T17:42:52;5.53;;;2.90;;
65368;SDS011;51970;53.484;49.488;2023-02-15T17:45:19;5.15;;;2.85;;
65368;SDS011;51970;53.484;49.488;2023-02-15T17:47:46;7.95;;;3.78;;
65368;SDS011;51970;53.484;49.488;2023-02-15T17:50:18;4.78;;;2.50;;
65368;SDS011;51970;53.484;49.488;2023-02-15T17:52:49;6.50;;;2.13;;
65368;SDS011;51970;53.484;49.488;2023-02-15T17:55:17;3.78;;;1.63;;
65368;SDS011;51970;53.484;49.488;2023-02-15T17:58:09;10.23;;;3.45;;
65368;SDS011;51970;53.484;49.488;2023-02-15T18:00:41;20.52;;;3.63;;
65368;SDS011;51970;53.484;49.488;2023-02-15T18:03:50;6.22;;;3.05;;
65368;SDS011;51970;53.484;49.488;2023-02-15T18:06:34;7.90;;;3.58;;
65368;SDS011;51970;53.484;49.488;2023-02-15T18:09:22;10.68;;;5.05;;
65368;SDS011;51970;53.484;49.488;2023-02-15T18:12:26;6.20;;;2.88;;
65368;SDS011;51970;53.484;49.488;2023-02-15T18:14:54;10.75;;;4.70;;
65368;SDS011;51970;53.484;49.488;2023-02-15T18:17:43;8.65;;;4.25;;
65368;SDS011;51970;53.484;49.488;2023-02-15T18:20:20;6.53;;;3.20;;
65368;SDS011;51970;53.484;49.488;2023-02-15T18:22:49;5.18;;;3.08;;
65368;SDS011;51970;53.484;49.488;2023-02-15T18:25:18;5.20;;;3.35;;
65368;SDS011;51970;53.484;49.488;2023-02-15T18:27:45;6.03;;;2.25;;
65368;SDS011;51970;53.484;49.488;2023-02-15T18:30:16;6.10;;;3.35;;
65368;SDS011;51970;53.484;49.488;2023-02-15T18:32:44;7.72;;;3.17;;
65368;SDS011;51970;53.484;49.488;2023-02-15T18:35:13;9.90;;;4.90;;
65368;SDS011;51970;53.484;49.488;2023-02-15T18:37:41;6.53;;;3.13;;
65368;SDS011;51970;53.484;49.488;2023-02-15T18:40:18;5.65;;;2.65;;
65368;SDS011;51970;53.484;49.488;2023-02-15T18:47:40;6.00;;;4.10;;
65368;SDS011;51970;53.484;49.488;2023-02-15T18:50:06;7.13;;;4.05;;
65368;SDS011;51970;53.484;49.488;2023-02-15T18:52:33;7.70;;;2.85;;
65368;SDS011;51970;53.484;49.488;2023-02-15T18:55:24;7.93;;;3.92;;
65368;SDS011;51970;53.484;49.488;2023-02-15T18:57:52;8.48;;;3.78;;
65368;SDS011;51970;53.484;49.488;2023-02-15T19:00:20;6.97;;;3.90;;
65368;SDS011;51970;53.484;49.488;2023-02-15T19:02:49;10.45;;;3.28;;
65368;SDS011;51970;53.484;49.488;2023-02-15T19:05:16;8.43;;;3.58;;
65368;SDS011;51970;53.484;49.488;2023-02-15T19:07:42;7.30;;;3.20;;
65368;SDS011;51970;53.484;49.488;2023-02-15T19:10:19;6.22;;;2.88;;
65368;SDS011;51970;53.484;49.488;2023-02-15T19:12:47;8.75;;;3.65;;
65368;SDS011;51970;53.484;49.488;2023-02-15T19:15:15;6.05;;;2.58;;
65368;SDS011;51970;53.484;49.488;2023-02-15T19:17:45;9.80;;;4.20;;
65368;SDS011;51970;53.484;49.488;2023-02-15T19:20:15;7.63;;;4.82;;
65368;SDS011;51970;53.484;49.488;2023-02-15T19:22:54;4.63;;;3.88;;
65368;SDS011;51970;53.484;49.488;2023-02-15T19:25:22;4.63;;;2.38;;
65368;SDS011;51970;53.484;49.488;2023-02-15T19:27:50;5.68;;;2.63;;
65368;SDS011;51970;53.484;49.488;2023-02-15T19:30:21;7.43;;;3.97;;
65368;SDS011;51970;53.484;49.488;2023-02-15T19:32:54;8.48;;;4.00;;
65368;SDS011;51970;53.484;49.488;2023-02-15T19:35:21;5.45;;;2.67;;
65368;SDS011;51970;53.484;49.488;2023-02-15T19:37:51;6.65;;;2.95;;
65368;SDS011;51970;53.484;49.488;2023-02-15T19:40:22;7.80;;;3.42;;
65368;SDS011;51970;53.484;49.488;2023-02-15T19:42:50;16.20;;;5.43;;
65368;SDS011;51970;53.484;49.488;2023-02-15T19:45:18;5.72;;;2.80;;